Time;durP1;ratioP1;P1;durP2;ratioP2;P2;SDS_P1;SDS_P2;PMS_P1;PMS_P2;Temp;Humidity;BMP_temperature;BMP_pressure;BME280_temperature;BME280_humidity;BME280_pressure;Samples;Min_cycle;Max_cycle;Signal;HPM_P1;HPM_P2
2021/06/10 00:01:36;;;;;;;;;16.00;14.75;;;;;22.43;43.99;98960.44;6246744;27;127597;-62
2021/06/10 00:04:39;;;;;;;;;17.00;16.00;;;;;22.43;44.20;98968.69;6257598;27;122778;-62
2021/06/10 00:07:41;;;;;;;;;19.00;18.75;;;;;22.45;44.76;98954.66;6258121;27;125109;-62
2021/06/10 00:10:45;;;;;;;;;22.00;19.67;;;;;22.28;44.75;98943.41;6264977;27;124026;-62
2021/06/10 00:13:48;;;;;;;;;21.40;19.00;;;;;22.46;44.79;98964.53;6239896;27;125519;-62
2021/06/10 00:16:52;;;;;;;;;20.00;18.00;;;;;22.54;44.31;98961.13;6259580;27;125243;-62
2021/06/10 00:19:55;;;;;;;;;18.40;16.00;;;;;22.57;44.20;98962.47;6275034;27;126624;-62
2021/06/10 00:22:58;;;;;;;;;18.25;17.00;;;;;22.54;44.25;98965.78;6258449;27;124975;-62
2021/06/10 00:26:00;;;;;;;;;19.00;18.00;;;;;22.53;44.01;98964.19;6257287;27;126672;-62
2021/06/10 00:29:04;;;;;;;;;17.40;15.40;;;;;22.52;44.16;98960.63;6255459;27;125367;-62
2021/06/10 00:32:13;;;;;;;;;15.00;14.00;;;;;22.51;44.18;98958.97;6257152;27;124991;-62
2021/06/10 00:35:17;;;;;;;;;16.50;16.00;;;;;22.49;44.01;98958.44;6257643;27;126017;-62
2021/06/10 00:38:20;;;;;;;;;15.60;14.60;;;;;22.42;44.02;98955.28;6256778;27;125630;-62
2021/06/10 00:41:23;;;;;;;;;15.60;15.00;;;;;22.39;43.83;98953.91;6255831;27;124828;-62
2021/06/10 00:44:26;;;;;;;;;18.00;15.00;;;;;22.38;44.09;98943.25;6250733;27;124564;-62
2021/06/10 00:47:30;;;;;;;;;17.00;16.00;;;;;22.34;43.88;98943.00;6258841;27;126512;-62
2021/06/10 00:50:43;;;;;;;;;14.50;13.00;;;;;22.32;43.73;98947.19;6251744;27;124634;-62
2021/06/10 00:53:46;;;;;;;;;14.80;13.80;;;;;22.33;44.12;98952.34;6259686;27;123466;-63
2021/06/10 00:56:51;;;;;;;;;14.00;13.00;;;;;22.23;43.91;98952.53;6254059;27;125069;-62
2021/06/10 00:59:54;;;;;;;;;16.20;16.00;;;;;22.21;43.96;98954.75;6258481;27;126302;-63
2021/06/10 01:02:58;;;;;;;;;14.80;14.00;;;;;22.20;44.11;98947.59;6258492;27;125366;-62
2021/06/10 01:06:06;;;;;;;;;15.60;15.00;;;;;22.17;43.94;98950.94;6258783;27;124888;-62
2021/06/10 01:09:14;;;;;;;;;13.00;13.00;;;;;22.18;43.96;98941.59;6259310;27;124097;-62
2021/06/10 01:12:22;;;;;;;;;17.60;15.60;;;;;22.16;44.04;98946.56;6259625;27;124604;-62
2021/06/10 01:15:28;;;;;;;;;16.00;15.00;;;;;22.14;43.93;98934.25;6258869;27;124945;-62
2021/06/10 01:18:36;;;;;;;;;14.60;13.40;;;;;22.10;44.29;98938.69;6258877;27;126011;-62
2021/06/10 01:21:43;;;;;;;;;14.00;12.75;;;;;22.02;44.27;98931.94;6261210;27;125020;-62
2021/06/10 01:24:55;;;;;;;;;17.00;14.40;;;;;21.93;43.99;98920.81;6262741;27;125950;-62
2021/06/10 01:28:01;;;;;;;;;17.00;15.00;;;;;22.02;43.92;98934.69;6262553;27;124561;-63
2021/06/10 01:31:07;;;;;;;;;15.40;15.00;;;;;21.96;43.96;98933.13;6262393;27;125146;-63
2021/06/10 01:34:12;;;;;;;;;14.75;14.00;;;;;21.92;43.87;98932.84;6263340;27;126573;-62
2021/06/10 01:37:17;;;;;;;;;16.00;14.60;;;;;21.83;44.13;98931.06;6262743;27;126587;-62
2021/06/10 01:40:23;;;;;;;;;16.20;14.20;;;;;21.82;44.36;98929.44;6263118;27;125563;-62
2021/06/10 01:43:33;;;;;;;;;17.00;15.40;;;;;21.78;44.52;98931.13;6261861;27;124905;-62
2021/06/10 01:46:36;;;;;;;;;18.75;17.00;;;;;21.72;45.00;98930.38;6257466;27;126006;-62
2021/06/10 01:49:41;;;;;;;;;19.40;18.40;;;;;21.59;45.29;98929.16;6260196;27;125012;-62
2021/06/10 01:52:46;;;;;;;;;20.00;18.75;;;;;21.64;45.75;98932.94;6260128;27;125790;-62
2021/06/10 01:55:51;;;;;;;;;20.00;19.00;;;;;21.59;45.81;98934.66;6260055;27;125719;-63
2021/06/10 01:58:57;;;;;;;;;21.00;19.00;;;;;21.53;46.07;98935.81;6260296;27;125736;-62
2021/06/10 02:02:03;;;;;;;;;22.80;21.20;;;;;21.43;46.47;98941.41;6261047;27;125499;-62
2021/06/10 02:05:08;;;;;;;;;24.00;20.40;;;;;21.34;47.18;98934.09;6261944;27;125601;-62
2021/06/10 02:08:14;;;;;;;;;22.00;19.75;;;;;21.32;47.30;98945.34;6261200;27;124036;-62
2021/06/10 02:11:17;;;;;;;;;23.20;21.80;;;;;21.31;47.23;98940.97;6262113;27;126007;-62
2021/06/10 02:14:22;;;;;;;;;21.75;20.00;;;;;21.16;47.46;98949.34;6261465;27;126268;-62
2021/06/10 02:17:25;;;;;;;;;19.40;17.80;;;;;21.23;46.95;98951.75;6259475;27;125955;-62
2021/06/10 02:20:28;;;;;;;;;24.00;19.20;;;;;21.20;47.26;98942.22;6260227;27;123125;-62
2021/06/10 02:23:31;;;;;;;;;22.60;20.80;;;;;20.90;47.68;98926.00;6260993;27;125026;-62
2021/06/10 02:26:34;;;;;;;;;24.80;22.80;;;;;20.91;48.33;98947.66;6269788;27;124863;-62
2021/06/10 02:29:38;;;;;;;;;25.00;22.25;;;;;20.97;47.65;98948.41;6243908;27;126436;-62
2021/06/10 02:32:40;;;;;;;;;21.00;18.60;;;;;20.97;48.18;98960.19;6255724;27;125931;-62
2021/06/10 02:35:43;;;;;;;;;26.50;24.50;;;;;21.01;47.73;98960.47;6247495;27;123902;-62
2021/06/10 02:38:51;;;;;;;;;24.50;23.00;;;;;21.00;47.93;98953.34;6252928;27;127060;-62
2021/06/10 02:41:56;;;;;;;;;26.00;24.00;;;;;20.87;48.04;98957.53;6259694;27;124716;-62
2021/06/10 02:45:01;;;;;;;;;26.50;23.50;;;;;20.92;48.03;98957.50;6261192;27;124871;-62
2021/06/10 02:48:06;;;;;;;;;25.75;24.00;;;;;20.85;48.14;98967.16;6259393;27;124580;-62
2021/06/10 02:51:11;;;;;;;;;24.25;23.00;;;;;20.97;47.91;98967.59;6260839;27;124176;-62
2021/06/10 02:54:18;;;;;;;;;25.40;24.00;;;;;21.04;47.87;98962.63;6261225;27;127300;-62
2021/06/10 02:57:23;;;;;;;;;25.00;22.80;;;;;20.95;47.71;98965.16;6260693;27;125513;-62
2021/06/10 03:00:30;;;;;;;;;25.80;23.00;;;;;20.95;47.53;98951.47;6261041;27;126293;-62
2021/06/10 03:03:36;;;;;;;;;29.40;27.40;;;;;21.06;47.13;98960.41;6258214;27;126463;-62
2021/06/10 03:06:39;;;;;;;;;24.50;23.25;;;;;21.04;47.37;98965.34;6259783;27;125430;-62
2021/06/10 03:09:43;;;;;;;;;25.60;23.00;;;;;20.97;47.46;98971.16;6260414;27;126030;-62
2021/06/10 03:12:47;;;;;;;;;27.00;24.00;;;;;21.06;47.07;98974.13;6260778;27;124784;-62
2021/06/10 03:15:51;;;;;;;;;24.60;22.60;;;;;21.12;46.92;98968.28;6250413;27;124822;-62
2021/06/10 03:18:56;;;;;;;;;25.00;22.00;;;;;20.97;47.25;98964.84;6260611;27;124334;-62
2021/06/10 03:21:59;;;;;;;;;25.00;23.00;;;;;21.09;47.40;98971.59;6273811;27;126006;-62
2021/06/10 03:25:05;;;;;;;;;23.00;23.00;;;;;21.13;47.04;98977.31;6260518;27;126775;-62
2021/06/10 03:28:08;;;;;;;;;25.00;22.40;;;;;21.16;47.06;98974.84;6260104;27;126586;-62
2021/06/10 03:31:13;;;;;;;;;22.40;21.40;;;;;21.23;46.62;98973.69;6259869;27;124895;-62
2021/06/10 03:34:17;;;;;;;;;22.20;22.00;;;;;21.29;47.11;98989.81;6259990;27;124876;-62
2021/06/10 03:37:20;;;;;;;;;21.80;20.20;;;;;21.12;46.69;98967.47;6259810;27;124771;-62
2021/06/10 03:40:24;;;;;;;;;26.00;23.40;;;;;21.30;46.44;98985.16;6258696;27;126289;-62
2021/06/10 03:43:27;;;;;;;;;24.00;23.50;;;;;21.28;46.63;98979.13;6257919;27;125701;-62
2021/06/10 03:46:32;;;;;;;;;23.60;22.60;;;;;21.31;46.51;98987.59;6258870;27;124994;-62
2021/06/10 03:49:35;;;;;;;;;24.50;23.25;;;;;21.36;46.32;98990.28;6259988;27;124661;-62
2021/06/10 03:52:38;;;;;;;;;25.00;23.75;;;;;21.25;46.57;98982.47;6260405;27;124942;-62
2021/06/10 03:55:41;;;;;;;;;23.50;22.75;;;;;21.03;46.77;98950.00;6260390;27;124946;-62
2021/06/10 03:58:43;;;;;;;;;23.60;23.00;;;;;21.18;47.10;98980.06;6258297;27;125968;-62
2021/06/10 04:01:48;;;;;;;;;26.00;23.50;;;;;21.18;46.93;98978.13;6256459;27;126532;-62
2021/06/10 04:04:52;;;;;;;;;23.80;22.80;;;;;21.13;46.59;98961.72;6259405;27;125788;-62
2021/06/10 04:07:55;;;;;;;;;23.00;23.00;;;;;21.35;46.77;98983.19;6259461;27;125147;-62
2021/06/10 04:10:58;;;;;;;;;22.00;21.00;;;;;21.17;46.41;98953.75;6255287;27;127094;-62
2021/06/10 04:14:01;;;;;;;;;24.60;21.60;;;;;21.34;46.67;98984.28;6253936;27;126438;-62
2021/06/10 04:17:05;;;;;;;;;26.00;22.60;;;;;21.36;46.91;98979.31;6256499;27;126082;-62
2021/06/10 04:20:09;;;;;;;;;24.00;23.00;;;;;21.42;46.44;98982.84;6258903;27;126430;-62
2021/06/10 04:23:12;;;;;;;;;27.00;24.00;;;;;21.46;46.46;98981.13;6257248;27;126426;-62
2021/06/10 04:26:16;;;;;;;;;22.60;20.60;;;;;21.50;46.49;98984.97;6253635;27;126401;-62
2021/06/10 04:29:19;;;;;;;;;21.00;19.00;;;;;21.55;46.36;98988.44;6248974;27;124671;-62
2021/06/10 04:32:23;;;;;;;;;25.50;24.00;;;;;21.41;46.25;98951.84;6241730;27;126467;-62
2021/06/10 04:35:26;;;;;;;;;23.00;21.00;;;;;21.75;46.10;98995.63;6253135;27;126639;-62
2021/06/10 04:38:29;;;;;;;;;23.50;20.00;;;;;21.83;46.00;98992.25;6258257;27;124246;-62
2021/06/10 04:41:32;;;;;;;;;22.60;20.40;;;;;21.91;45.84;98993.53;6244608;27;125290;-62
2021/06/10 04:44:35;;;;;;;;;23.00;20.40;;;;;22.00;45.66;98989.88;6247277;27;125169;-62
2021/06/10 04:47:40;;;;;;;;;21.00;19.75;;;;;22.07;45.29;98997.75;6258830;27;126815;-62
2021/06/10 04:50:42;;;;;;;;;21.60;19.60;;;;;22.08;45.45;98987.59;6258299;27;126047;-62
2021/06/10 04:53:46;;;;;;;;;25.25;23.00;;;;;22.16;45.43;98993.25;6252850;27;125247;-62
2021/06/10 04:56:49;;;;;;;;;22.00;20.80;;;;;22.11;44.91;98987.00;6237017;27;123871;-62
2021/06/10 04:59:52;;;;;;;;;21.00;20.00;;;;;22.14;45.42;98995.47;6262072;27;124918;-62
2021/06/10 05:02:56;;;;;;;;;22.00;21.00;;;;;22.19;45.39;98989.09;6262208;27;124714;-62
2021/06/10 05:05:59;;;;;;;;;23.40;21.40;;;;;22.36;45.23;98986.66;6254937;27;124787;-62
2021/06/10 05:09:02;;;;;;;;;22.00;21.00;;;;;22.44;44.66;98986.81;6263276;27;126221;-63
2021/06/10 05:12:06;;;;;;;;;22.60;21.40;;;;;22.44;44.88;98986.00;6251689;27;126119;-62
2021/06/10 05:15:10;;;;;;;;;19.25;19.00;;;;;22.55;45.07;98997.66;6237808;27;125223;-62
2021/06/10 05:18:14;;;;;;;;;21.00;20.00;;;;;22.57;44.89;98989.94;6252787;27;124685;-62
2021/06/10 05:21:17;;;;;;;;;20.40;19.00;;;;;22.73;44.69;98988.59;6242932;27;125958;-62
2021/06/10 05:24:21;;;;;;;;;22.00;21.00;;;;;22.74;44.67;98974.56;6240946;27;124917;-62
2021/06/10 05:27:24;;;;;;;;;21.40;20.40;;;;;22.81;44.07;98982.44;6247482;27;125910;-62
2021/06/10 05:30:27;;;;;;;;;19.60;19.00;;;;;23.00;44.30;98983.25;6255617;27;126527;-63
2021/06/10 05:33:31;;;;;;;;;23.00;21.00;;;;;23.10;43.96;98985.81;6260807;27;125118;-62
2021/06/10 05:36:34;;;;;;;;;22.25;20.25;;;;;23.21;44.02;98983.72;6258924;27;125894;-62
2021/06/10 05:39:37;;;;;;;;;21.00;19.00;;;;;23.37;43.20;98981.47;6262788;27;124896;-62
2021/06/10 05:42:39;;;;;;;;;20.00;18.75;;;;;23.50;43.31;98986.25;6256601;27;125972;-64
2021/06/10 05:45:42;;;;;;;;;22.00;20.00;;;;;23.42;43.08;98964.88;6250800;27;127298;-63
2021/06/10 05:48:46;;;;;;;;;21.80;19.00;;;;;23.64;43.21;98976.88;6262710;27;124903;-62
2021/06/10 05:51:49;;;;;;;;;22.00;18.60;;;;;23.96;43.04;98988.91;6259179;27;124755;-63
2021/06/10 05:54:52;;;;;;;;;23.00;20.40;;;;;24.01;42.22;98966.75;6261906;27;125964;-63
2021/06/10 05:57:55;;;;;;;;;17.00;16.00;;;;;24.36;41.15;98988.06;6261289;27;125968;-63
2021/06/10 06:00:57;;;;;;;;;16.00;15.00;;;;;24.55;40.51;98985.97;6261700;27;124344;-64
2021/06/10 06:04:06;;;;;;;;;17.60;16.00;;;;;24.69;40.64;98996.97;6262293;27;126316;-63
2021/06/10 06:07:09;;;;;;;;;17.25;16.25;;;;;24.69;40.31;98974.09;6253584;27;126394;-63
2021/06/10 06:10:14;;;;;;;;;16.80;15.80;;;;;24.93;39.11;98992.00;6254078;27;127006;-62
2021/06/10 06:13:20;;;;;;;;;17.00;14.40;;;;;25.05;39.17;98985.91;6254359;27;123991;-64
2021/06/10 06:16:23;;;;;;;;;16.00;16.00;;;;;25.37;39.10;98991.13;6260228;27;126008;-63
2021/06/10 06:19:27;;;;;;;;;18.00;16.00;;;;;25.41;38.48;98992.13;6271872;27;126019;-64
2021/06/10 06:22:30;;;;;;;;;16.50;15.50;;;;;25.50;38.39;98991.38;6269728;27;125681;-63
2021/06/10 06:25:33;;;;;;;;;15.00;14.00;;;;;25.68;38.71;98987.59;6278710;27;126118;-62
2021/06/10 06:28:36;;;;;;;;;12.60;12.60;;;;;25.82;37.75;98997.41;6259049;27;124930;-62
2021/06/10 06:31:39;;;;;;;;;16.80;15.00;;;;;25.97;37.56;99004.44;6260351;27;125965;-64
2021/06/10 06:34:43;;;;;;;;;15.80;14.80;;;;;26.19;38.17;99003.56;6268638;27;126370;-63
2021/06/10 06:37:45;;;;;;;;;13.00;12.00;;;;;26.37;36.71;99001.66;6281549;27;126028;-63
2021/06/10 06:40:48;;;;;;;;;14.00;13.00;;;;;26.41;36.64;98995.16;6269603;27;124925;-62
2021/06/10 06:43:51;;;;;;;;;14.00;13.00;;;;;26.47;36.63;98991.09;6265090;27;126230;-61
2021/06/10 06:46:54;;;;;;;;;13.25;12.00;;;;;26.53;36.18;99000.06;6271279;27;123700;-63
2021/06/10 06:49:58;;;;;;;;;12.40;12.40;;;;;26.52;35.79;98984.59;6274011;27;125233;-63
2021/06/10 06:53:02;;;;;;;;;15.00;13.25;;;;;26.73;35.55;98999.44;6265473;27;126224;-64
2021/06/10 06:56:05;;;;;;;;;13.00;13.00;;;;;26.99;36.31;99005.78;6243439;27;123970;-62
2021/06/10 06:59:18;;;;;;;;;13.60;11.60;;;;;27.09;35.90;99007.41;6276474;27;124173;-62
2021/06/10 07:02:21;;;;;;;;;13.00;12.60;;;;;27.28;35.14;99001.50;6271711;27;126325;-63
2021/06/10 07:05:25;;;;;;;;;12.80;11.80;;;;;27.33;34.58;98996.63;6270768;27;124311;-61
2021/06/10 07:08:29;;;;;;;;;12.40;10.40;;;;;27.40;33.38;99005.25;6261403;27;127121;-62
2021/06/10 07:11:37;;;;;;;;;12.00;11.00;;;;;27.60;33.93;99003.75;6279678;27;124793;-62
2021/06/10 07:14:39;;;;;;;;;11.00;10.00;;;;;27.81;33.63;98996.31;6262286;27;126275;-62
2021/06/10 07:17:42;;;;;;;;;11.00;9.25;;;;;28.06;33.87;99002.06;6248426;27;125086;-62
2021/06/10 07:20:46;;;;;;;;;9.00;8.25;;;;;28.13;31.52;98991.31;6253499;27;125029;-62
2021/06/10 07:23:49;;;;;;;;;9.00;9.00;;;;;28.46;32.53;99008.06;6262224;27;126380;-63
2021/06/10 07:26:52;;;;;;;;;10.60;9.60;;;;;28.66;32.68;99007.28;6262175;27;125374;-63
2021/06/10 07:29:58;;;;;;;;;7.00;7.00;;;;;28.91;31.74;99016.59;6243410;27;125220;-62
2021/06/10 07:33:03;;;;;;;;;9.00;8.00;;;;;28.97;30.69;99004.13;6266793;27;124849;-65
2021/06/10 07:36:07;;;;;;;;;8.67;8.67;;;;;29.26;31.10;99024.25;6269283;27;125949;-68
2021/06/10 07:39:12;;;;;;;;;5.00;5.00;;;;;29.49;28.64;99015.56;6263272;27;125921;-65
2021/06/10 07:42:14;;;;;;;;;4.00;4.00;;;;;29.81;28.74;99011.91;6260525;27;126089;-64
2021/06/10 07:45:18;;;;;;;;;4.00;4.00;;;;;29.96;27.31;99002.91;6279697;27;126352;-65
2021/06/10 07:48:21;;;;;;;;;5.00;5.00;;;;;30.08;26.80;99002.94;6274509;27;125967;-64
2021/06/10 07:51:25;;;;;;;;;4.00;4.00;;;;;30.16;27.23;98992.84;6270290;27;126503;-63
2021/06/10 07:54:27;;;;;;;;;4.40;4.40;;;;;30.39;26.05;99013.47;6259680;27;124232;-63
2021/06/10 07:57:30;;;;;;;;;4.60;4.60;;;;;30.45;26.32;99002.88;6266491;27;124907;-63
2021/06/10 08:00:33;;;;;;;;;4.60;4.00;;;;;30.62;27.27;99013.81;6269584;27;125143;-64
2021/06/10 08:03:37;;;;;;;;;5.00;5.00;;;;;30.84;27.65;99013.25;6267996;27;125549;-62
2021/06/10 08:06:41;;;;;;;;;5.00;5.00;;;;;31.01;26.57;99017.75;6259937;27;127271;-62
2021/06/10 08:09:43;;;;;;;;;4.00;4.00;;;;;31.22;25.50;99017.59;6256153;27;124650;-63
2021/06/10 08:12:47;;;;;;;;;4.00;4.00;;;;;31.32;26.56;99017.06;6268185;27;126270;-62
2021/06/10 08:15:51;;;;;;;;;5.00;5.00;;;;;31.50;26.23;99020.34;6263260;27;124449;-64
2021/06/10 08:18:54;;;;;;;;;5.00;5.00;;;;;31.54;25.92;99019.25;6275142;27;125920;-63
2021/06/10 08:21:58;;;;;;;;;5.60;5.00;;;;;31.57;26.30;99015.78;6277498;27;124400;-63
2021/06/10 08:25:01;;;;;;;;;5.00;5.00;;;;;31.60;25.32;99003.13;6268697;27;126018;-65
2021/06/10 08:28:04;;;;;;;;;5.00;4.00;;;;;31.34;24.70;99023.91;6261000;27;125745;-63
2021/06/10 08:31:09;;;;;;;;;5.40;5.00;;;;;31.12;25.63;99013.34;6272862;27;124523;-65
2021/06/10 08:34:11;;;;;;;;;5.00;5.00;;;;;30.98;25.30;99016.47;6269543;27;126025;-65
2021/06/10 08:37:15;;;;;;;;;3.80;3.80;;;;;30.77;26.15;99003.91;6278032;27;124810;-64
2021/06/10 08:40:19;;;;;;;;;4.00;4.00;;;;;30.89;25.68;99040.03;6265327;27;126233;-64
2021/06/10 08:43:22;;;;;;;;;4.00;4.00;;;;;31.03;24.54;99029.38;6271517;27;126491;-64
2021/06/10 08:46:27;;;;;;;;;4.00;3.00;;;;;31.20;26.12;99019.91;6282874;27;125248;-64
2021/06/10 08:49:30;;;;;;;;;4.80;4.00;;;;;31.35;24.86;99024.72;6277833;27;125307;-64
2021/06/10 08:52:35;;;;;;;;;5.60;5.00;;;;;31.46;25.41;99020.25;6267038;27;124826;-64
2021/06/10 08:55:37;;;;;;;;;3.20;3.00;;;;;31.65;24.69;99028.75;6262140;27;126521;-64
2021/06/10 08:58:41;;;;;;;;;4.00;4.00;;;;;31.83;24.55;99018.06;6260758;27;125383;-64
2021/06/10 09:01:46;;;;;;;;;3.60;3.60;;;;;32.04;24.03;99024.19;6254245;27;123595;-62
2021/06/10 09:04:49;;;;;;;;;5.25;5.25;;;;;32.25;24.66;99026.72;6250783;27;125939;-63
2021/06/10 09:07:55;;;;;;;;;4.00;4.00;;;;;32.11;24.96;99021.59;6272466;27;125190;-63
2021/06/10 09:11:11;;;;;;;;;5.00;5.00;;;;;32.01;24.99;99026.91;6274849;27;126038;-64
2021/06/10 09:14:14;;;;;;;;;4.00;4.00;;;;;32.13;25.35;99027.63;6268295;27;124099;-63
2021/06/10 09:17:29;;;;;;;;;4.00;4.00;;;;;32.44;25.06;99028.78;6262345;27;125232;-63
2021/06/10 09:20:44;;;;;;;;;4.80;4.80;;;;;32.77;25.50;99031.94;6273787;27;124929;-62
2021/06/10 09:23:49;;;;;;;;;4.00;4.00;;;;;32.70;24.34;99031.78;6276710;27;127319;-62
2021/06/10 09:27:11;;;;;;;;;5.80;5.00;;;;;32.79;24.27;99038.00;6266914;27;125884;-61
2021/06/10 09:30:27;;;;;;;;;5.00;5.00;;;;;32.47;23.85;99019.66;6252861;27;125745;-62
2021/06/10 09:33:39;;;;;;;;;4.00;3.80;;;;;32.51;24.19;99035.31;6279334;27;126636;-62
2021/06/10 09:36:43;;;;;;;;;4.00;4.00;;;;;32.63;23.53;99029.66;6271803;27;126804;-63
2021/06/10 09:39:52;;;;;;;;;4.20;4.00;;;;;32.74;23.62;99041.06;6272889;27;123979;-63
2021/06/10 09:42:55;;;;;;;;;4.00;4.00;;;;;32.83;23.30;99038.06;6266483;27;125798;-63
2021/06/10 09:45:59;;;;;;;;;4.00;4.00;;;;;32.77;22.97;99034.75;6274081;27;124918;-63
2021/06/10 09:49:05;;;;;;;;;5.00;4.00;;;;;32.82;22.89;99016.88;6266242;27;124170;-64
2021/06/10 09:52:08;;;;;;;;;3.00;3.00;;;;;33.06;22.70;99031.38;6269651;27;125800;-64
2021/06/10 09:55:26;;;;;;;;;4.60;4.00;;;;;33.22;22.78;99034.13;6264541;27;126859;-64
2021/06/10 09:58:31;;;;;;;;;3.00;3.00;;;;;33.32;22.00;99033.53;6288929;27;124842;-64
2021/06/10 10:01:34;;;;;;;;;4.00;4.00;;;;;33.57;22.73;99033.22;6276604;27;126105;-64
2021/06/10 10:04:59;;;;;;;;;3.00;3.00;;;;;33.63;21.42;99031.72;6264944;27;126490;-64
2021/06/10 10:08:02;;;;;;;;;4.00;4.00;;;;;33.77;21.31;99020.84;6261250;27;124703;-63
2021/06/10 10:11:07;;;;;;;;;3.80;3.00;;;;;33.82;21.13;99028.88;6276134;27;125049;-64
2021/06/10 10:14:12;;;;;;;;;4.00;3.00;;;;;33.86;21.54;99018.59;6269294;27;124770;-62
2021/06/10 10:17:15;;;;;;;;;4.00;3.00;;;;;34.13;22.02;99011.84;6264652;27;124584;-64
2021/06/10 10:20:19;;;;;;;;;4.00;4.00;;;;;34.35;20.66;99016.66;6277969;27;124050;-64
2021/06/10 10:23:23;;;;;;;;;3.00;3.00;;;;;34.40;21.21;98998.72;6274170;27;124953;-65
2021/06/10 10:26:27;;;;;;;;;3.40;2.00;;;;;34.66;20.83;99009.06;6262175;27;124459;-64
2021/06/10 10:29:31;;;;;;;;;4.00;4.00;;;;;34.61;20.32;99013.00;6265527;27;125847;-62
2021/06/10 10:32:35;;;;;;;;;4.00;4.00;;;;;34.60;20.64;99003.00;6275048;27;125034;-62
2021/06/10 10:35:46;;;;;;;;;4.40;3.00;;;;;34.82;20.68;98992.13;6276033;27;126697;-61
2021/06/10 10:38:57;;;;;;;;;3.00;3.00;;;;;35.02;21.29;98994.38;6270242;27;124186;-62
2021/06/10 10:42:01;;;;;;;;;3.00;3.00;;;;;35.12;20.76;98993.72;6266016;27;126185;-62
2021/06/10 10:45:16;;;;;;;;;3.00;3.00;;;;;35.18;19.75;98983.00;6278646;27;126047;-62
2021/06/10 10:48:32;;;;;;;;;3.00;3.00;;;;;35.09;19.90;99000.06;6263367;27;123466;-63
2021/06/10 10:51:36;;;;;;;;;4.40;4.00;;;;;34.93;19.48;98988.28;6272476;27;126940;-62
2021/06/10 10:54:39;;;;;;;;;4.00;4.00;;;;;35.08;20.10;98990.06;6263312;27;125190;-63
2021/06/10 10:57:45;;;;;;;;;4.00;4.00;;;;;34.94;19.43;98981.50;6257477;27;126637;-62
2021/06/10 11:00:53;;;;;;;;;2.00;2.00;;;;;35.08;19.93;98976.06;6272196;27;123735;-63
2021/06/10 11:03:56;;;;;;;;;3.00;3.00;;;;;35.23;19.73;98981.84;6250327;27;124720;-62
2021/06/10 11:06:58;;;;;;;;;4.00;4.00;;;;;35.28;19.38;98971.09;6264268;27;126334;-62
2021/06/10 11:10:01;;;;;;;;;4.00;3.60;;;;;35.29;19.50;98971.88;6280641;27;125744;-62
2021/06/10 11:13:16;;;;;;;;;4.00;4.00;;;;;35.14;19.43;98979.28;6271218;27;125211;-62
2021/06/10 11:16:19;;;;;;;;;4.00;3.00;;;;;35.11;19.66;98975.28;6226614;27;125327;-61
2021/06/10 11:19:22;;;;;;;;;4.00;4.00;;;;;34.72;19.89;98957.19;6264257;27;126239;-61
2021/06/10 11:22:28;;;;;;;;;5.00;5.00;;;;;34.77;20.23;98970.84;6254567;27;126486;-61
2021/06/10 11:25:44;;;;;;;;;4.00;4.00;;;;;34.96;19.07;98955.88;6261491;27;124136;-61
2021/06/10 11:29:01;;;;;;;;;4.00;4.00;;;;;34.97;19.39;98958.31;6255576;27;125953;-62
2021/06/10 11:32:26;;;;;;;;;2.80;2.80;;;;;34.77;20.28;98948.44;6250840;27;124693;-62
2021/06/10 11:35:31;;;;;;;;;4.00;3.80;;;;;34.48;19.90;98954.81;6274797;27;125771;-61
2021/06/10 11:38:39;;;;;;;;;3.00;3.00;;;;;34.41;20.49;98952.72;6269672;27;126253;-62
2021/06/10 11:41:41;;;;;;;;;4.00;4.00;;;;;34.38;19.60;98950.69;6266407;27;126063;-62
2021/06/10 11:44:47;;;;;;;;;3.00;3.00;;;;;34.48;19.62;98938.03;6275699;27;126207;-62
2021/06/10 11:47:50;;;;;;;;;3.20;3.20;;;;;34.52;19.79;98938.88;6280170;27;124796;-62
2021/06/10 11:50:53;;;;;;;;;3.00;2.40;;;;;34.20;20.84;98930.84;6269118;27;124879;-61
2021/06/10 11:53:57;;;;;;;;;3.00;3.00;;;;;34.38;20.32;98933.09;6262412;27;123114;-61
2021/06/10 11:57:03;;;;;;;;;3.00;3.00;;;;;34.51;20.28;98928.84;6276714;27;126296;-61
2021/06/10 12:00:10;;;;;;;;;3.80;3.00;;;;;34.64;19.55;98919.88;6275848;27;124803;-61
2021/06/10 12:03:15;;;;;;;;;4.00;4.00;;;;;34.68;20.08;98917.94;6269738;27;125498;-62
2021/06/10 12:06:21;;;;;;;;;3.00;3.00;;;;;34.64;19.73;98902.25;6258259;27;124660;-61
2021/06/10 12:09:24;;;;;;;;;2.00;1.80;;;;;34.38;20.12;98905.09;6270797;27;125773;-62
2021/06/10 12:12:33;;;;;;;;;3.00;3.00;;;;;34.42;20.15;98906.75;6268049;27;125319;-62
2021/06/10 12:15:46;;;;;;;;;2.60;2.60;;;;;34.43;20.57;98894.38;6267644;27;125724;-62
2021/06/10 12:18:50;;;;;;;;;3.20;3.20;;;;;34.27;20.63;98896.56;6275791;27;125692;-61
2021/06/10 12:21:59;;;;;;;;;3.00;3.00;;;;;34.09;20.52;98899.06;6278793;27;126048;-61
2021/06/10 12:25:14;;;;;;;;;4.25;3.25;;;;;34.07;20.69;98897.81;6260498;27;126026;-62
2021/06/10 12:28:39;;;;;;;;;3.20;3.00;;;;;34.14;20.18;98890.34;6242227;27;124870;-62
2021/06/10 12:31:43;;;;;;;;;3.00;3.00;;;;;33.95;20.42;98876.50;6246578;27;124374;-62
2021/06/10 12:34:53;;;;;;;;;3.00;3.00;;;;;34.04;20.33;98885.41;6248442;27;127323;-62
2021/06/10 12:37:56;;;;;;;;;3.00;3.00;;;;;34.04;20.03;98873.41;6244064;27;125812;-61
2021/06/10 12:41:21;;;;;;;;;3.00;3.00;;;;;33.96;20.02;98855.72;6261017;27;125191;-61
2021/06/10 12:44:34;;;;;;;;;4.00;4.00;;;;;33.83;20.17;98873.91;6260989;27;126134;-61
2021/06/10 12:47:43;;;;;;;;;3.00;3.00;;;;;33.94;20.65;98861.69;6269265;27;125547;-61
2021/06/10 12:50:46;;;;;;;;;4.00;4.00;;;;;34.19;20.14;98850.06;6262633;27;126565;-61
2021/06/10 12:54:09;;;;;;;;;4.00;4.00;;;;;34.38;20.21;98854.72;6271281;27;127697;-61
2021/06/10 12:57:19;;;;;;;;;4.80;4.00;;;;;34.56;20.32;98842.53;6262987;27;125691;-61
2021/06/10 13:00:31;;;;;;;;;4.75;4.00;;;;;34.72;19.71;98856.38;6264139;27;127456;-62
2021/06/10 13:03:35;;;;;;;;;5.00;4.00;;;;;34.30;18.92;98853.84;6266336;27;124346;-62
2021/06/10 13:06:38;;;;;;;;;4.80;4.00;;;;;34.33;19.31;98844.66;6256563;27;123705;-62
2021/06/10 13:09:45;;;;;;;;;4.00;4.00;;;;;34.09;18.85;98845.91;6255159;27;126031;-62
2021/06/10 13:12:49;;;;;;;;;6.00;5.20;;;;;34.22;19.68;98850.13;6259487;27;126041;-62
2021/06/10 13:16:03;;;;;;;;;4.00;4.00;;;;;34.34;19.21;98829.50;6264561;27;124935;-62
2021/06/10 13:19:25;;;;;;;;;4.00;4.00;;;;;34.45;19.60;98835.22;6273920;27;124705;-62
2021/06/10 13:22:28;;;;;;;;;5.00;5.00;;;;;34.52;19.29;98829.69;6261125;27;124512;-62
2021/06/10 13:25:31;;;;;;;;;4.00;4.00;;;;;34.36;19.40;98811.13;6267984;27;126113;-62
2021/06/10 13:28:34;;;;;;;;;4.60;4.00;;;;;34.42;19.13;98842.38;6264744;27;126439;-62
2021/06/10 13:31:40;;;;;;;;;4.00;4.00;;;;;34.43;19.28;98841.19;6267832;27;125051;-63
2021/06/10 13:34:55;;;;;;;;;4.20;4.20;;;;;34.29;19.94;98827.84;6264694;27;124759;-61
2021/06/10 13:37:59;;;;;;;;;5.50;5.00;;;;;33.84;20.75;98836.34;6276039;27;125775;-61
2021/06/10 13:41:03;;;;;;;;;5.00;5.00;;;;;33.50;20.75;98835.41;6270219;27;124239;-61
2021/06/10 13:44:08;;;;;;;;;6.20;5.20;;;;;33.31;21.74;98841.09;6274277;27;126878;-62
2021/06/10 13:47:11;;;;;;;;;5.00;5.00;;;;;33.12;21.93;98827.16;6265286;27;124350;-62
2021/06/10 13:50:15;;;;;;;;;6.00;5.00;;;;;33.05;21.96;98827.81;6269904;27;126184;-61
2021/06/10 13:53:18;;;;;;;;;6.00;5.00;;;;;33.00;21.59;98825.34;6267568;27;124520;-61
2021/06/10 13:56:21;;;;;;;;;6.00;5.00;;;;;33.17;21.30;98824.09;6262509;27;124962;-62
2021/06/10 13:59:23;;;;;;;;;8.00;7.00;;;;;33.10;23.62;98825.53;6268251;27;126726;-62
2021/06/10 14:02:27;;;;;;;;;7.00;7.00;;;;;33.15;24.19;98835.59;6267196;27;126271;-62
2021/06/10 14:05:32;;;;;;;;;7.25;7.00;;;;;33.12;23.94;98829.94;6262141;27;124605;-62
2021/06/10 14:08:35;;;;;;;;;9.00;8.40;;;;;33.03;24.15;98830.19;6273878;27;126028;-61
2021/06/10 14:11:37;;;;;;;;;7.60;7.60;;;;;33.02;24.01;98829.38;6272888;27;125330;-61